Latest Weather Observations for Nambour

IDQ60901

Issued at 11:01 am EST Monday 20 April 2015 (issued every 10 minutes, with the page automatically refreshed every 10 minutes)

About weather observations | Map of Brisbane area stations | Latest observations for Brisbane area | Other Formats
Station Details ID: 040988 Name: NAMBOUR DAFF - HILLSIDE Lat: -26.64 Lon: 152.94 Height: 53.24 m
Data from the previous 72 hours. | See also: Recent months at Nambour
Date/Time
EST
Tmp

°C
App
Tmp
°C
Dew
Point
°C
Rel
Hum
%
Delta-T

°C
Wind Press
QNH
hPa
Press
MSL
hPa
Rain
since
9 am
mm
Dir
 
Spd
km/h
Gust
km/h
Spd
kts
Gust
kts
20/11:00am 23.4 25.2 17.4 69 3.7 WSW 4 6 2 3 1018.2 1018.0 0.0
20/10:30am 22.9 25.2 17.8 73 3.2 NW 2 6 1 3 1018.2 1018.0 0.0
20/10:00am 22.1 24.3 18.3 79 2.4 ESE 4 9 2 5 1018.6 1018.4 0.0
20/09:30am 21.5 23.9 18.9 85 1.6 ENE 4 6 2 3 1018.7 1018.5 0.0
20/09:00am 21.4 23.6 18.4 83 1.9 E 4 6 2 3 1018.5 1018.3 1.2
20/08:30am 21.1 24.0 18.1 83 1.9 CALM 0 2 0 1 1018.3 1018.1 1.2
20/08:00am 20.8 23.7 18.2 85 1.6 CALM 0 2 0 1 1018.3 1018.1 1.2
20/07:30am 20.6 22.5 17.6 83 1.8 ENE 4 11 2 6 1018.4 1018.2 1.2
20/07:00am 20.5 22.9 18.8 90 1.1 ESE 4 6 2 3 1018.1 1017.9 1.2
20/06:30am 19.8 22.9 18.6 93 0.7 CALM 0 0 0 0 1017.8 1017.6 1.2
20/06:00am 19.7 22.7 18.4 92 0.8 CALM 0 0 0 0 1017.6 1017.4 1.2
20/05:30am 20.1 23.0 18.2 89 1.2 CALM 0 0 0 0 1017.4 1017.2 1.2
20/05:00am 20.7 23.3 18.3 86 1.5 SE 2 6 1 3 1017.3 1017.1 1.2
20/04:30am 20.7 23.3 18.3 86 1.5 SW 2 6 1 3 1016.9 1016.7 1.2
20/04:00am 20.1 22.6 18.2 89 1.2 WSW 2 4 1 2 1016.8 1016.6 1.2
20/03:30am 21.5 23.0 17.5 78 2.5 SW 6 11 3 6 1016.6 1016.4 1.2
20/03:00am 20.6 23.2 18.4 87 1.4 SW 2 9 1 5 1016.7 1016.5 1.2
20/02:30am 20.9 22.5 17.9 83 1.9 SW 6 9 3 5 1016.7 1016.5 1.2
20/02:00am 21.0 22.2 17.4 80 2.2 WSW 7 15 4 8 1017.1 1016.9 1.2
20/01:30am 20.4 22.2 18.2 87 1.4 WSW 6 9 3 5 1017.3 1017.1 1.2
20/01:00am 20.7 23.0 18.6 88 1.3 W 4 15 2 8 1017.6 1017.4 1.2
20/12:30am 20.8 23.8 19.3 91 1.0 ESE 2 7 1 4 1017.6 1017.4 1.2
20/12:00am 21.3 23.7 19.6 90 1.1 WSW 6 11 3 6 1017.9 1017.7 1.0
 
Date/Time
EST
Tmp

°C
App
Tmp
°C
Dew
Point
°C
Rel
Hum
%
Delta-T

°C
Wind Press
QNH
hPa
Press
MSL
hPa
Rain
since
9 am
mm
Dir
 
Spd
km/h
Gust
km/h
Spd
kts
Gust
kts
19/11:30pm 21.5 25.1 20.5 94 0.6 SE 2 6 1 3 1018.0 1017.8 0.0
19/11:00pm 21.6 25.5 20.4 93 0.8 CALM 0 0 0 0 1018.5 1018.3 0.0
19/10:30pm 21.5 25.4 20.3 93 0.8 CALM 0 4 0 2 1018.9 1018.7 0.0
19/10:00pm 21.7 25.2 20.3 92 0.9 SW 2 4 1 2 1018.9 1018.7 0.0
19/09:30pm 21.6 25.4 20.2 92 0.9 CALM 0 0 0 0 1018.9 1018.7 0.0
19/09:00pm 21.8 25.7 20.3 91 1.0 CALM 0 0 0 0 1018.5 1018.3 0.0
19/08:30pm 21.6 25.4 20.1 91 1.0 CALM 0 0 0 0 1018.7 1018.5 0.0
19/08:00pm 21.8 25.5 19.9 89 1.2 CALM 0 0 0 0 1018.8 1018.6 0.0
19/07:30pm 21.9 25.6 20.0 89 1.2 CALM 0 0 0 0 1018.4 1018.2 0.0
19/07:00pm 22.1 25.7 19.8 87 1.5 CALM 0 0 0 0 1018.1 1017.9 0.0
19/06:30pm 22.3 25.7 19.3 83 1.9 CALM 0 0 0 0 1017.8 1017.6 0.0
19/06:00pm 23.0 26.1 19.6 81 2.2 WNW 2 4 1 2 1017.6 1017.4 0.0
19/05:30pm 23.7 27.3 19.8 79 2.5 CALM 0 4 0 2 1017.3 1017.1 0.0
19/05:00pm 24.1 26.6 19.8 77 2.8 ENE 6 9 3 5 1016.9 1016.7 0.0
19/04:30pm 24.4 26.9 19.9 76 2.9 ENE 6 9 3 5 1016.8 1016.6 0.0
19/04:00pm 24.7 26.2 19.8 74 3.2 ENE 11 19 6 10 1016.7 1016.5 0.0
19/03:30pm 25.3 26.6 19.4 70 3.8 ENE 11 15 6 8 1016.1 1015.9 0.0
19/03:00pm 26.3 27.9 18.2 61 5.1 NNE 7 11 4 6 1016.3 1016.1 0.0
19/02:30pm 27.0 28.9 18.6 60 5.4 NNE 6 11 3 6 1016.6 1016.4 0.0
19/02:00pm 27.4 29.1 18.4 58 5.7 NE 7 15 4 8 1016.7 1016.5 0.0
19/01:30pm 27.4 28.5 15.7 48 7.2 N 4 7 2 4 1017.0 1016.8 0.0
19/01:00pm 27.9 29.2 17.1 51 6.8 WNW 6 13 3 7 1017.5 1017.3 0.0
19/12:30pm 26.9 28.8 17.7 57 5.8 NW 4 7 2 4 1017.8 1017.6 0.0
19/12:00pm 27.2 28.6 17.4 55 6.2 NW 6 9 3 5 1018.2 1018.0 0.0
19/11:30am 27.3 29.2 18.6 59 5.6 NNW 6 11 3 6 1018.9 1018.7 0.0
19/11:00am 26.6 28.0 17.9 59 5.5 N 7 17 4 9 1019.2 1019.0 0.0
19/10:30am 25.8 27.0 18.2 63 4.8 NNW 9 17 5 9 1019.5 1019.3 0.0
19/10:00am 25.6 27.7 19.3 68 4.0 N 7 11 4 6 1019.6 1019.4 0.0
19/09:30am 25.5 27.3 18.4 65 4.5 NNE 6 11 3 6 1019.6 1019.4 0.0
19/09:00am 24.3 27.0 19.4 74 3.1 ENE 4 6 2 3 1019.7 1019.5 1.6
19/08:30am 23.3 26.2 19.0 77 2.7 ENE 2 4 1 2 1019.7 1019.5 1.6
19/08:00am 21.9 24.7 18.9 83 1.9 ENE 2 4 1 2 1019.4 1019.2 1.6
19/07:30am 21.2 24.4 19.8 92 0.9 ENE 2 6 1 3 1019.3 1019.1 1.6
19/07:00am 19.4 22.5 18.7 96 0.4 CALM 0 0 0 0 1018.8 1018.6 1.6
19/06:30am 18.2 20.9 17.7 97 0.3 CALM 0 0 0 0 1018.9 1018.7 1.6
19/06:00am 18.1 20.7 17.5 96 0.4 CALM 0 0 0 0 1018.8 1018.6 1.6
19/05:30am 18.5 21.3 18.0 97 0.3 CALM 0 0 0 0 1018.6 1018.4 1.6
19/05:00am 18.4 21.2 17.9 97 0.3 CALM 0 0 0 0 1018.5 1018.3 1.6
19/04:30am 18.4 21.2 17.9 97 0.3 CALM 0 0 0 0 1018.4 1018.2 1.4
19/04:00am 18.5 21.3 18.0 97 0.3 CALM 0 2 0 1 1018.2 1018.0 1.4
19/03:30am 18.8 21.0 18.3 97 0.3 SW 4 6 2 3 1018.4 1018.2 1.4
19/03:00am 18.6 21.5 18.1 97 0.3 CALM 0 0 0 0 1018.7 1018.5 1.4
19/02:30am 18.6 21.4 17.9 96 0.4 CALM 0 0 0 0 1019.0 1018.8 1.4
19/02:00am 19.0 21.9 18.3 96 0.4 CALM 0 0 0 0 1019.2 1019.0 1.4
19/01:30am 19.5 22.7 18.8 96 0.4 CALM 0 0 0 0 1019.6 1019.4 1.4
19/01:00am 19.6 22.8 18.9 96 0.4 CALM 0 0 0 0 1020.1 1019.9 1.4
19/12:30am 20.0 22.6 19.3 96 0.4 SW 4 6 2 3 1020.3 1020.1 1.4
19/12:00am 20.4 24.0 19.7 96 0.4 CALM 0 0 0 0 1020.5 1020.3 1.4
 
Date/Time
EST
Tmp

°C
App
Tmp
°C
Dew
Point
°C
Rel
Hum
%
Delta-T

°C
Wind Press
QNH
hPa
Press
MSL
hPa
Rain
since
9 am
mm
Dir
 
Spd
km/h
Gust
km/h
Spd
kts
Gust
kts
18/11:30pm 20.1 23.5 19.3 95 0.5 CALM 0 0 0 0 1020.6 1020.4 1.4
18/11:00pm 20.4 23.9 19.6 95 0.5 CALM 0 0 0 0 1020.6 1020.4 1.4
18/10:30pm 20.6 24.2 19.8 95 0.5 CALM 0 0 0 0 1020.7 1020.5 1.4
18/10:00pm 21.0 24.7 20.0 94 0.6 CALM 0 0 0 0 1021.0 1020.8 1.4
18/09:30pm 21.3 24.8 20.3 94 0.6 E 2 6 1 3 1021.0 1020.8 1.2
18/09:00pm 21.2 24.7 20.4 95 0.5 WSW 2 4 1 2 1020.9 1020.7 0.6
18/08:30pm 21.6 25.4 20.1 91 1.0 CALM 0 4 0 2 1020.8 1020.6 0.4
18/08:00pm 21.3 24.9 19.8 91 1.0 CALM 0 0 0 0 1020.7 1020.5 0.2
18/07:30pm 20.9 24.3 19.4 91 1.0 CALM 0 0 0 0 1020.4 1020.2 0.2
18/07:00pm 21.2 24.2 18.4 84 1.7 CALM 0 4 0 2 1020.1 1019.9 0.2
18/06:30pm 21.6 24.5 18.2 81 2.1 CALM 0 2 0 1 1019.8 1019.6 0.2
18/06:00pm 22.4 25.3 18.2 77 2.6 CALM 0 0 0 0 1019.5 1019.3 0.2
18/05:30pm 23.2 25.3 18.1 73 3.2 ENE 4 9 2 5 1019.4 1019.2 0.2
18/05:00pm 23.9 25.9 17.9 69 3.8 NE 4 6 2 3 1019.5 1019.3 0.2
18/04:30pm 24.7 26.3 17.9 66 4.3 NE 6 13 3 7 1019.4 1019.2 0.2
18/04:00pm 24.9 26.1 17.4 63 4.7 NE 7 15 4 8 1019.2 1019.0 0.2
18/03:30pm 26.0 26.6 17.6 60 5.3 NE 11 22 6 12 1018.9 1018.7 0.2
18/03:00pm 25.5 24.8 17.4 61 5.1 E 17 22 9 12 1019.0 1018.8 0.2
18/02:30pm 25.7 25.8 17.4 60 5.2 ENE 13 24 7 13 1019.0 1018.8 0.2
18/02:00pm 25.6 25.4 17.5 61 5.1 ENE 15 22 8 12 1019.1 1018.9 0.2
18/01:30pm 27.2 27.9 18.8 60 5.4 NE 13 22 7 12 1019.2 1019.0 0.2
18/01:00pm 25.9 26.5 17.8 61 5.1 ENE 11 19 6 10 1019.7 1019.5 0.2
18/12:30pm 26.5 26.5 17.3 57 5.8 NE 13 24 7 13 1020.2 1020.0 0.2
18/12:00pm 26.6 26.7 17.4 57 5.8 ENE 13 24 7 13 1020.7 1020.5 0.2
18/11:30am 25.5 25.3 17.7 62 4.9 ENE 15 22 8 12 1021.3 1021.1 0.2
18/11:00am 26.5 26.5 18.1 60 5.3 E 15 24 8 13 1021.7 1021.5 0.2
18/10:30am 25.5 27.0 18.9 67 4.2 ENE 9 20 5 11 1022.2 1022.0 0.2
18/10:00am 25.1 28.1 19.2 70 3.8 ENE 2 6 1 3 1022.5 1022.3 0.2
18/09:30am 24.1 27.0 19.0 73 3.3 SE 2 7 1 4 1022.8 1022.6 0.0
18/09:00am 23.3 26.0 18.6 75 3.0 SE 2 6 1 3 1022.8 1022.6 1.6
18/08:30am 21.5 25.4 20.3 93 0.8 CALM 0 0 0 0 1022.7 1022.5 1.6
18/08:00am 20.5 23.6 19.5 94 0.6 W 2 6 1 3 1022.5 1022.3 1.0
18/07:30am 20.3 23.5 18.8 91 0.9 CALM 0 0 0 0 1022.1 1021.9 0.4
18/07:00am 18.6 21.3 17.8 95 0.5 CALM 0 0 0 0 1021.9 1021.7 0.4
18/06:30am 18.6 21.4 17.9 96 0.4 CALM 0 0 0 0 1021.7 1021.5 0.4
18/06:00am 18.7 21.5 17.9 95 0.5 CALM 0 0 0 0 1021.4 1021.2 0.4
18/05:30am 19.3 21.6 18.5 95 0.5 SW 4 6 2 3 1021.2 1021.0 0.4
18/05:00am 19.1 22.0 18.1 94 0.6 CALM 0 0 0 0 1021.1 1020.9 0.4
18/04:30am 19.3 22.3 18.5 95 0.5 CALM 0 2 0 1 1021.2 1021.0 0.4
18/04:00am 19.1 22.1 18.4 96 0.4 CALM 0 4 0 2 1021.1 1020.9 0.4
18/03:30am 18.4 20.7 17.8 96 0.4 SW 2 4 1 2 1021.0 1020.8 0.4
18/03:00am 18.4 21.1 17.8 96 0.4 CALM 0 0 0 0 1021.2 1021.0 0.4
18/02:30am 18.1 20.7 17.5 96 0.4 CALM 0 0 0 0 1021.2 1021.0 0.4
18/02:00am 18.1 20.7 17.5 96 0.4 CALM 0 0 0 0 1021.6 1021.4 0.4
18/01:30am 17.8 20.3 17.2 96 0.4 CALM 0 0 0 0 1021.8 1021.6 0.2
18/01:00am 17.5 19.8 16.7 95 0.5 CALM 0 0 0 0 1021.8 1021.6 0.2
18/12:30am 18.0 20.6 17.4 96 0.4 CALM 0 0 0 0 1022.0 1021.8 0.2
18/12:00am 18.1 20.6 17.3 95 0.5 CALM 0 0 0 0 1022.3 1022.1 0.2
 
Date/Time
EST
Tmp

°C
App
Tmp
°C
Dew
Point
°C
Rel
Hum
%
Delta-T

°C
Wind Press
QNH
hPa
Press
MSL
hPa
Rain
since
9 am
mm
Dir
 
Spd
km/h
Gust
km/h
Spd
kts
Gust
kts
17/11:30pm 17.8 20.1 16.8 94 0.6 CALM 0 0 0 0 1022.6 1022.4 0.2
17/11:00pm 18.2 20.8 17.4 95 0.5 CALM 0 0 0 0 1022.7 1022.5 0.2
17/10:30pm 18.0 20.5 17.2 95 0.5 CALM 0 4 0 2 1022.7 1022.5 0.2
17/10:00pm 18.3 20.8 17.3 94 0.6 CALM 0 0 0 0 1022.7 1022.5 0.2
17/09:30pm 18.8 21.4 17.6 93 0.7 CALM 0 0 0 0 1022.8 1022.6 0.2
17/09:00pm 18.9 21.5 17.4 91 0.9 CALM 0 0 0 0 1022.8 1022.6 0.2
17/08:30pm 19.3 22.0 17.8 91 0.9 CALM 0 0 0 0 1022.8 1022.6 0.0
17/08:00pm 18.9 21.3 16.9 88 1.2 CALM 0 0 0 0 1022.6 1022.4 0.0
17/07:30pm 18.9 20.9 16.0 83 1.7 CALM 0 4 0 2 1022.4 1022.2 0.0
17/07:00pm 19.2 21.2 16.1 82 1.8 CALM 0 0 0 0 1022.0 1021.8 0.0
17/06:30pm 19.6 21.3 16.1 80 2.1 SSW 2 4 1 2 1021.8 1021.6 0.0
17/06:00pm 20.5 22.4 15.7 74 2.9 CALM 0 4 0 2 1021.4 1021.2 0.0
17/05:30pm 22.1 23.6 15.7 67 3.8 ESE 2 4 1 2 1021.3 1021.1 0.0
17/05:00pm 22.7 23.9 15.8 65 4.1 E 4 7 2 4 1021.1 1020.9 0.0
17/04:30pm 23.6 24.2 15.9 62 4.7 ENE 7 11 4 6 1020.9 1020.7 0.0
17/04:00pm 24.4 24.7 16.1 60 5.1 ENE 9 15 5 8 1020.5 1020.3 0.0
17/03:30pm 24.2 24.1 15.9 59 5.0 E 11 22 6 12 1020.5 1020.3 0.0
17/03:00pm 25.1 25.0 16.0 57 5.5 ENE 11 17 6 9 1020.5 1020.3 0.0
17/02:30pm 24.9 24.5 16.1 58 5.4 ENE 13 22 7 12 1020.5 1020.3 0.0
17/02:00pm 25.9 25.6 16.5 56 5.8 ENE 13 20 7 11 1020.7 1020.5 0.0
17/01:30pm 26.5 26.9 17.3 57 5.8 ENE 11 20 6 11 1020.9 1020.7 0.0
17/01:00pm 26.4 26.4 17.2 57 5.7 E 13 19 7 10 1021.3 1021.1 0.0
17/12:30pm 26.4 26.4 17.2 57 5.8 E 13 22 7 12 1021.7 1021.5 0.0
17/12:00pm 25.6 24.8 16.2 56 5.8 E 15 20 8 11 1022.3 1022.1 0.0
17/11:30am 25.4 25.3 16.0 56 5.7 ENE 11 19 6 10 1022.9 1022.7 0.0

Latest Capital City Observations: Canberra | Sydney | Melbourne | Brisbane | Adelaide | Perth | Hobart | Darwin

Other Formats:

Comma delimited format used in spreadsheet applications
http://www.bom.gov.au/fwo/IDQ60901/IDQ60901.95572.axf

JavaScript Object Notation format (JSON) in row-major order
http://www.bom.gov.au/fwo/IDQ60901/IDQ60901.95572.json